Time;durP1;ratioP1;P1;durP2;ratioP2;P2;SDS_P1;SDS_P2;PMS_P1;PMS_P2;Temp;Humidity;BMP_temperature;BMP_pressure;BME280_temperature;BME280_humidity;BME280_pressure;Samples;Min_cycle;Max_cycle;Signal;HPM_P1;HPM_P2
2022/07/03 00:01:30;;;;;;;2.83;1.50;;;20.40;99.90;;;;;;5074408;22;20510;-84
2022/07/03 00:03:57;;;;;;;4.47;1.87;;;20.40;99.90;;;;;;5094914;28;20461;-83
2022/07/03 00:06:26;;;;;;;3.47;2.07;;;20.40;99.90;;;;;;5088101;28;20518;-80
2022/07/03 00:08:53;;;;;;;3.50;1.60;;;20.30;99.90;;;;;;5071157;28;20518;-83
2022/07/03 00:11:23;;;;;;;3.80;1.77;;;20.20;99.90;;;;;;5062227;28;20483;-83
2022/07/03 00:13:50;;;;;;;3.80;1.90;;;20.20;99.90;;;;;;5049631;28;20565;-81
2022/07/03 00:16:17;;;;;;;3.90;2.07;;;20.10;99.90;;;;;;5077480;28;20479;-83
2022/07/03 00:18:44;;;;;;;4.50;2.03;;;20.10;99.90;;;;;;5079289;28;20592;-83
2022/07/03 00:21:16;;;;;;;3.60;1.60;;;20.00;99.90;;;;;;5075125;28;20494;-83
2022/07/03 00:23:52;;;;;;;4.57;2.20;;;19.90;99.90;;;;;;5075729;28;20471;-83
2022/07/03 00:26:21;;;;;;;4.77;1.90;;;19.90;99.90;;;;;;5051644;28;20906;-82
2022/07/03 00:28:48;;;;;;;4.57;2.20;;;19.90;99.90;;;;;;5039836;28;20520;-81
2022/07/03 00:31:15;;;;;;;4.10;2.40;;;19.80;99.90;;;;;;5046016;28;20559;-83
2022/07/03 00:33:43;;;;;;;4.93;2.40;;;19.80;99.90;;;;;;5058737;28;20483;-82
2022/07/03 00:36:10;;;;;;;4.07;1.60;;;19.80;99.90;;;;;;5053597;28;20484;-82
2022/07/03 00:38:37;;;;;;;2.97;1.77;;;19.80;99.90;;;;;;5039520;28;20524;-82
2022/07/03 00:41:06;;;;;;;3.70;1.60;;;19.70;99.90;;;;;;5049857;28;20557;-83
2022/07/03 00:43:33;;;;;;;5.37;1.80;;;19.70;99.90;;;;;;5076430;28;20542;-83
2022/07/03 00:46:08;;;;;;;3.57;1.50;;;19.70;99.90;;;;;;5074615;28;20530;-81
2022/07/03 00:48:38;;;;;;;6.57;2.00;;;19.60;99.90;;;;;;5059086;28;20446;-81
2022/07/03 00:51:07;;;;;;;3.80;2.13;;;19.60;99.90;;;;;;5054302;28;20526;-83
2022/07/03 00:53:38;;;;;;;4.77;2.00;;;19.60;99.90;;;;;;5037637;28;20960;-79
2022/07/03 00:56:07;;;;;;;5.00;1.80;;;19.60;99.90;;;;;;5055882;28;20525;-81
2022/07/03 00:58:35;;;;;;;4.30;2.30;;;19.60;99.90;;;;;;5058138;28;20522;-79
2022/07/03 01:01:02;;;;;;;2.73;1.47;;;19.60;99.90;;;;;;5042572;28;20484;-83
2022/07/03 01:03:32;;;;;;;4.30;1.87;;;19.60;99.90;;;;;;5037688;28;20547;-82
2022/07/03 01:06:08;;;;;;;3.67;1.50;;;19.60;99.90;;;;;;5053314;28;20562;-81
2022/07/03 01:08:41;;;;;;;4.20;2.43;;;19.50;99.90;;;;;;5058586;28;20685;-81
2022/07/03 01:11:21;;;;;;;3.83;2.10;;;19.50;99.90;;;;;;5062330;28;20486;-81
2022/07/03 01:14:05;;;;;;;4.00;1.93;;;19.50;99.90;;;;;;5062836;28;20988;-81
2022/07/03 01:16:40;;;;;;;4.77;1.90;;;19.50;99.90;;;;;;5058873;28;20498;-83
2022/07/03 01:19:20;;;;;;;4.00;2.07;;;19.40;99.90;;;;;;5057532;28;20515;-83
2022/07/03 01:21:55;;;;;;;3.67;2.40;;;19.40;99.90;;;;;;5057344;28;20485;-83
2022/07/03 01:24:54;;;;;;;3.43;2.00;;;19.30;99.90;;;;;;5055570;28;20848;-82
2022/07/03 01:27:31;;;;;;;3.30;2.00;;;19.30;99.90;;;;;;5058476;28;20458;-81
2022/07/03 01:30:05;;;;;;;6.03;2.40;;;19.30;99.90;;;;;;5041267;28;20567;-81
2022/07/03 01:32:36;;;;;;;4.20;2.20;;;19.20;99.90;;;;;;5042846;28;20482;-82
2022/07/03 01:35:04;;;;;;;3.70;2.20;;;19.10;99.90;;;;;;5074094;28;20534;-82
2022/07/03 01:37:34;;;;;;;3.93;1.90;;;19.10;99.90;;;;;;5062194;28;20462;-82
2022/07/03 01:40:04;;;;;;;4.00;2.17;;;19.10;99.90;;;;;;5045525;28;20516;-82
2022/07/03 01:42:34;;;;;;;3.83;2.00;;;19.00;99.90;;;;;;5059368;28;20482;-82
2022/07/03 01:45:02;;;;;;;5.20;2.60;;;18.90;99.90;;;;;;5058129;28;20485;-82
2022/07/03 01:47:30;;;;;;;3.40;1.93;;;18.90;99.90;;;;;;5066887;28;20472;-83
2022/07/03 01:49:58;;;;;;;4.60;1.80;;;18.80;99.90;;;;;;5075034;28;20464;-82
2022/07/03 01:52:27;;;;;;;3.67;2.20;;;18.80;99.90;;;;;;5068806;28;20473;-82
2022/07/03 01:54:56;;;;;;;3.70;2.47;;;18.80;99.90;;;;;;5052091;28;20910;-83
2022/07/03 01:57:28;;;;;;;2.80;1.57;;;18.70;99.90;;;;;;5051588;28;20452;-81
2022/07/03 02:00:01;;;;;;;3.27;2.00;;;18.70;99.90;;;;;;5037956;28;20475;-81
2022/07/03 02:02:33;;;;;;;5.40;3.43;;;18.60;99.90;;;;;;5045595;28;20517;-82
2022/07/03 02:05:08;;;;;;;3.63;1.80;;;18.60;99.90;;;;;;5065619;28;20457;-81
2022/07/03 02:07:40;;;;;;;4.77;2.10;;;18.60;99.90;;;;;;5055680;28;20454;-82
2022/07/03 02:10:08;;;;;;;3.77;2.30;;;18.60;99.90;;;;;;5057178;28;20580;-82
2022/07/03 02:12:40;;;;;;;5.03;2.27;;;18.50;99.90;;;;;;5055599;28;20491;-82
2022/07/03 02:15:11;;;;;;;3.70;2.17;;;18.60;99.90;;;;;;5036833;28;20453;-82
2022/07/03 02:17:42;;;;;;;3.53;2.00;;;18.60;99.90;;;;;;5038155;28;20872;-81
2022/07/03 02:20:10;;;;;;;5.43;2.30;;;18.50;99.90;;;;;;5057515;28;20889;-79
2022/07/03 02:22:42;;;;;;;4.43;2.23;;;18.60;99.90;;;;;;5057140;28;20513;-81
2022/07/03 02:25:13;;;;;;;5.53;2.27;;;18.60;99.90;;;;;;5037647;28;20514;-80
2022/07/03 02:27:44;;;;;;;3.20;2.07;;;18.60;99.90;;;;;;5037768;28;20459;-82
2022/07/03 02:30:14;;;;;;;4.33;1.73;;;18.60;99.90;;;;;;5057351;28;20485;-81
2022/07/03 02:32:45;;;;;;;5.10;2.20;;;18.70;99.90;;;;;;5057224;28;20464;-82
2022/07/03 02:35:17;;;;;;;3.43;1.80;;;18.70;99.90;;;;;;5048845;28;20470;-81
2022/07/03 02:37:48;;;;;;;4.40;2.23;;;18.60;99.90;;;;;;5042200;28;20543;-83
2022/07/03 02:40:22;;;;;;;5.03;2.17;;;18.60;99.90;;;;;;5035237;28;20456;-81
2022/07/03 02:43:03;;;;;;;4.63;2.10;;;18.60;99.90;;;;;;5048716;28;20463;-81
2022/07/03 02:45:39;;;;;;;4.60;1.97;;;18.60;99.90;;;;;;5038549;28;20456;-78
2022/07/03 02:48:13;;;;;;;3.50;2.30;;;18.60;99.90;;;;;;5051006;28;20541;-82
2022/07/03 02:50:44;;;;;;;4.43;2.17;;;18.50;99.90;;;;;;5055180;28;20486;-82
2022/07/03 02:53:20;;;;;;;4.33;2.57;;;18.50;99.90;;;;;;5038860;28;20511;-81
2022/07/03 02:55:48;;;;;;;4.90;2.03;;;18.50;99.90;;;;;;5035209;28;20546;-82
2022/07/03 02:58:33;;;;;;;3.97;2.10;;;18.50;99.90;;;;;;5050840;28;20461;-81
2022/07/03 03:01:10;;;;;;;4.30;2.17;;;18.40;99.90;;;;;;5055031;28;20483;-79
2022/07/03 03:03:44;;;;;;;4.50;2.40;;;18.40;99.90;;;;;;5036042;28;20554;-82
2022/07/03 03:06:14;;;;;;;4.53;2.33;;;18.40;99.90;;;;;;5046230;28;20530;-82
2022/07/03 03:08:47;;;;;;;3.07;1.77;;;18.40;99.90;;;;;;5054642;28;20518;-81
2022/07/03 03:11:24;;;;;;;3.80;2.20;;;18.40;99.90;;;;;;5043710;28;20576;-82
2022/07/03 03:13:55;;;;;;;5.80;2.50;;;18.40;99.90;;;;;;5035085;28;20454;-82
2022/07/03 03:16:24;;;;;;;4.20;2.50;;;18.40;99.90;;;;;;5046720;28;20454;-82
2022/07/03 03:18:51;;;;;;;3.70;1.90;;;18.30;99.90;;;;;;5059249;28;20452;-81
2022/07/03 03:21:18;;;;;;;3.40;1.90;;;18.30;99.90;;;;;;5055293;28;20559;-83
2022/07/03 03:23:48;;;;;;;4.17;2.13;;;18.30;99.90;;;;;;5033316;28;20523;-82
2022/07/03 03:26:15;;;;;;;3.87;2.00;;;18.20;99.90;;;;;;5044567;28;20463;-83
2022/07/03 03:28:42;;;;;;;3.53;2.00;;;18.20;99.90;;;;;;5055579;28;20531;-82
2022/07/03 03:31:09;;;;;;;4.43;2.03;;;18.20;99.90;;;;;;5045824;28;20493;-80
2022/07/03 03:33:42;;;;;;;3.83;2.03;;;18.20;99.90;;;;;;5034107;28;20807;-80
2022/07/03 03:36:11;;;;;;;4.47;2.40;;;18.20;99.90;;;;;;5054262;28;20549;-79
2022/07/03 03:38:38;;;;;;;4.57;2.13;;;18.20;99.90;;;;;;5054878;28;20451;-80
2022/07/03 03:41:05;;;;;;;5.00;2.17;;;18.10;99.90;;;;;;5034012;28;20554;-80
2022/07/03 03:43:33;;;;;;;4.23;2.00;;;18.20;99.90;;;;;;5051988;28;20891;-80
2022/07/03 03:46:00;;;;;;;4.13;2.50;;;18.20;99.90;;;;;;5054326;28;20542;-79
2022/07/03 03:48:27;;;;;;;3.87;2.33;;;18.10;99.90;;;;;;5037644;28;20743;-82
2022/07/03 03:50:57;;;;;;;4.63;2.23;;;18.20;99.90;;;;;;5036212;28;20567;-80
2022/07/03 03:53:26;;;;;;;4.43;1.80;;;18.20;99.90;;;;;;5051309;28;20474;-80
2022/07/03 03:56:00;;;;;;;4.80;1.90;;;18.20;99.90;;;;;;5048243;28;20563;-79
2022/07/03 03:58:28;;;;;;;5.80;2.40;;;18.20;99.90;;;;;;5036405;28;21016;-82
2022/07/03 04:00:57;;;;;;;5.90;2.10;;;18.20;99.90;;;;;;5038631;28;20518;-80
2022/07/03 04:03:24;;;;;;;9.97;2.73;;;18.30;99.90;;;;;;5040261;28;20467;-79
2022/07/03 04:05:51;;;;;;;4.30;1.80;;;18.30;99.90;;;;;;5059591;28;20541;-79
2022/07/03 04:08:19;;;;;;;3.53;2.10;;;18.40;99.90;;;;;;5059376;28;20491;-80
2022/07/03 04:10:47;;;;;;;3.20;2.00;;;18.40;99.90;;;;;;5042002;28;20479;-79
2022/07/03 04:13:14;;;;;;;3.57;2.00;;;18.50;99.90;;;;;;5056696;28;20497;-77
2022/07/03 04:15:40;;;;;;;4.60;2.50;;;18.50;99.90;;;;;;5056303;28;20447;-80
2022/07/03 04:18:07;;;;;;;5.20;2.27;;;18.50;99.90;;;;;;5061683;28;20457;-80
2022/07/03 04:20:35;;;;;;;3.97;2.77;;;18.60;99.90;;;;;;5044774;28;20474;-79
2022/07/03 04:23:02;;;;;;;3.13;1.80;;;18.60;99.90;;;;;;5042605;28;20459;-81
2022/07/03 04:25:30;;;;;;;6.03;2.47;;;18.60;99.90;;;;;;5051181;28;20458;-79
2022/07/03 04:27:57;;;;;;;4.47;2.70;;;18.70;99.90;;;;;;5064288;28;20522;-79
2022/07/03 04:30:24;;;;;;;3.67;2.40;;;18.70;99.90;;;;;;5064606;28;20481;-79
2022/07/03 04:32:51;;;;;;;3.90;2.40;;;18.80;99.90;;;;;;5057677;28;20513;-78
2022/07/03 04:35:18;;;;;;;3.80;2.30;;;18.90;99.90;;;;;;5047747;28;20826;-79
2022/07/03 04:37:45;;;;;;;3.73;2.20;;;19.00;99.90;;;;;;5054660;28;20459;-79
2022/07/03 04:40:13;;;;;;;4.20;2.10;;;19.00;99.90;;;;;;5068542;28;20474;-79
2022/07/03 04:42:41;;;;;;;4.57;2.50;;;19.10;99.90;;;;;;5065501;28;20905;-81
2022/07/03 04:45:09;;;;;;;3.73;2.00;;;19.30;99.90;;;;;;5058962;28;20454;-80
2022/07/03 04:47:36;;;;;;;4.80;2.70;;;19.30;99.90;;;;;;5050718;28;20489;-81
2022/07/03 04:50:03;;;;;;;6.47;2.63;;;19.40;99.90;;;;;;5044574;28;20508;-81
2022/07/03 04:52:30;;;;;;;3.90;2.10;;;19.50;99.90;;;;;;5058714;28;20551;-81
2022/07/03 04:54:57;;;;;;;4.43;2.20;;;19.50;99.90;;;;;;5065222;28;20550;-80
2022/07/03 04:57:24;;;;;;;3.70;2.40;;;19.60;99.90;;;;;;5068997;28;20483;-80
2022/07/03 04:59:52;;;;;;;4.80;3.07;;;19.60;99.90;;;;;;5069260;28;20456;-81
2022/07/03 05:02:19;;;;;;;3.80;2.20;;;19.70;99.90;;;;;;5063047;28;20479;-83
2022/07/03 05:04:46;;;;;;;4.07;2.50;;;19.80;99.90;;;;;;5070751;28;20458;-80
2022/07/03 05:07:13;;;;;;;4.30;2.63;;;19.80;99.90;;;;;;5064217;28;20494;-83
2022/07/03 05:09:39;;;;;;;5.47;2.20;;;19.90;99.90;;;;;;5067391;28;21011;-80
2022/07/03 05:12:07;;;;;;;6.40;2.80;;;20.00;99.90;;;;;;5065757;28;20514;-81
2022/07/03 05:14:34;;;;;;;2.70;2.07;;;20.00;99.90;;;;;;5080379;28;20435;-81
2022/07/03 05:17:02;;;;;;;4.00;2.60;;;20.10;99.90;;;;;;5079505;28;20431;-81
2022/07/03 05:19:30;;;;;;;3.93;1.87;;;20.10;99.90;;;;;;5076612;28;20533;-79
2022/07/03 05:21:56;;;;;;;4.10;2.37;;;20.10;99.90;;;;;;5063075;28;20463;-81
2022/07/03 05:24:24;;;;;;;4.50;1.93;;;20.10;99.90;;;;;;5061489;28;20452;-79
2022/07/03 05:26:51;;;;;;;4.07;2.17;;;20.10;99.90;;;;;;5063601;28;20994;-78
2022/07/03 05:29:18;;;;;;;2.90;1.80;;;20.10;99.90;;;;;;5053995;28;21006;-81
2022/07/03 05:31:45;;;;;;;3.77;2.20;;;20.10;99.90;;;;;;5052881;28;20577;-81
2022/07/03 05:34:13;;;;;;;3.63;1.57;;;20.00;99.90;;;;;;5071072;28;20886;-79
2022/07/03 05:36:43;;;;;;;3.30;1.80;;;20.00;99.90;;;;;;5073545;28;20453;-79
2022/07/03 05:42:15;;;;;;;4.17;1.93;;;19.90;99.90;;;;;;5031074;28;20587;-79
2022/07/03 05:44:42;;;;;;;4.10;2.40;;;19.90;99.90;;;;;;5055036;28;20488;-80
2022/07/03 05:47:09;;;;;;;4.80;1.90;;;19.80;99.90;;;;;;5063351;28;20490;-82
2022/07/03 05:49:37;;;;;;;4.70;2.00;;;19.80;99.90;;;;;;5062412;28;20476;-80
2022/07/03 05:52:10;;;;;;;4.30;2.37;;;19.80;99.90;;;;;;5064107;28;20502;-80
2022/07/03 05:54:37;;;;;;;2.97;1.93;;;19.80;99.90;;;;;;5067398;28;20470;-80
2022/07/03 05:57:09;;;;;;;4.97;2.50;;;19.80;99.90;;;;;;5075324;28;20630;-79
2022/07/03 05:59:39;;;;;;;3.70;2.30;;;19.90;99.90;;;;;;5076680;28;20482;-78
2022/07/03 06:02:06;;;;;;;3.13;2.10;;;19.90;99.90;;;;;;5056888;28;20486;-80
2022/07/03 06:04:32;;;;;;;3.37;1.83;;;20.10;99.90;;;;;;5051071;28;20516;-79
2022/07/03 06:07:03;;;;;;;3.37;1.60;;;20.10;99.90;;;;;;5036558;28;20488;-79
2022/07/03 06:09:33;;;;;;;5.40;1.97;;;20.20;99.90;;;;;;5053599;28;20456;-78
2022/07/03 06:12:00;;;;;;;7.00;2.30;;;20.30;99.90;;;;;;5051834;28;21019;-80
2022/07/03 06:14:27;;;;;;;4.67;1.93;;;20.40;99.90;;;;;;5064607;28;20538;-80
2022/07/03 06:16:54;;;;;;;4.10;1.93;;;20.40;99.90;;;;;;5058845;28;20524;-81
2022/07/03 06:19:20;;;;;;;4.87;2.03;;;20.60;99.90;;;;;;5059537;28;20533;-81
2022/07/03 06:21:47;;;;;;;3.97;2.10;;;20.60;99.90;;;;;;5063541;28;20555;-81
2022/07/03 06:24:15;;;;;;;6.57;2.60;;;20.70;99.90;;;;;;5057240;28;20488;-81
2022/07/03 06:26:42;;;;;;;8.47;2.73;;;20.70;99.90;;;;;;5056327;28;20479;-80
2022/07/03 06:29:09;;;;;;;4.73;2.30;;;20.80;99.90;;;;;;5064177;28;20462;-80
2022/07/03 06:31:36;;;;;;;6.50;3.10;;;20.90;99.90;;;;;;5060429;28;20564;-80
2022/07/03 06:34:03;;;;;;;6.20;2.47;;;21.00;99.90;;;;;;5050065;28;20535;-80
2022/07/03 06:36:30;;;;;;;5.33;2.20;;;21.00;99.90;;;;;;5046672;28;20503;-80
2022/07/03 06:38:57;;;;;;;8.53;2.90;;;21.10;99.90;;;;;;5049621;28;20527;-79
2022/07/03 06:41:25;;;;;;;7.53;3.00;;;21.00;99.90;;;;;;5060517;28;20475;-79
2022/07/03 06:43:52;;;;;;;7.20;3.93;;;21.10;99.90;;;;;;5052662;28;20526;-80
2022/07/03 06:46:18;;;;;;;5.90;2.80;;;21.20;99.90;;;;;;5063283;28;20833;-80
2022/07/03 06:48:47;;;;;;;7.70;2.93;;;21.30;99.90;;;;;;5060411;28;20447;-81
2022/07/03 06:51:14;;;;;;;9.40;3.13;;;21.40;99.90;;;;;;5061449;28;20566;-79
2022/07/03 06:53:41;;;;;;;4.80;2.90;;;21.40;99.90;;;;;;5059407;28;20811;-81
2022/07/03 06:56:08;;;;;;;5.87;3.37;;;21.50;99.90;;;;;;5060088;28;20451;-79
2022/07/03 06:58:36;;;;;;;4.97;2.90;;;21.50;99.90;;;;;;5059053;28;20484;-80
2022/07/03 07:01:03;;;;;;;6.30;2.80;;;21.60;99.90;;;;;;5050011;28;20579;-80
2022/07/03 07:03:30;;;;;;;5.63;3.30;;;21.70;99.90;;;;;;5053037;28;20898;-80
2022/07/03 07:05:57;;;;;;;7.03;3.20;;;21.70;99.90;;;;;;5058714;28;20448;-79
2022/07/03 07:08:23;;;;;;;5.73;3.40;;;21.70;99.90;;;;;;5043554;28;21026;-79
2022/07/03 07:10:50;;;;;;;7.00;3.63;;;21.80;99.90;;;;;;5053697;28;20500;-80
2022/07/03 07:13:17;;;;;;;8.03;3.00;;;21.90;99.90;;;;;;5058650;28;20486;-81
2022/07/03 07:15:45;;;;;;;5.70;3.40;;;21.90;99.90;;;;;;5037108;28;20539;-80
2022/07/03 07:18:12;;;;;;;7.33;3.30;;;22.00;99.90;;;;;;5055439;28;20516;-80
2022/07/03 07:20:40;;;;;;;6.30;2.97;;;22.10;99.90;;;;;;5069095;28;20443;-78
2022/07/03 07:23:07;;;;;;;6.80;3.20;;;22.10;99.90;;;;;;5089532;22;20617;-83
2022/07/03 07:25:34;;;;;;;11.90;3.67;;;22.20;99.90;;;;;;5027185;28;20861;-80
2022/07/03 07:28:00;;;;;;;6.77;3.47;;;22.20;99.90;;;;;;5028687;28;20449;-83
2022/07/03 07:30:27;;;;;;;5.83;3.30;;;22.30;99.90;;;;;;5026196;28;20452;-81
2022/07/03 07:32:56;;;;;;;5.23;2.90;;;22.40;99.90;;;;;;5017344;28;21056;-82
2022/07/03 07:35:23;;;;;;;8.80;2.93;;;22.50;99.90;;;;;;5018870;28;20488;-80
2022/07/03 07:37:50;;;;;;;6.87;3.23;;;22.60;99.90;;;;;;5012744;28;20540;-82
2022/07/03 07:40:16;;;;;;;6.07;3.13;;;22.60;99.90;;;;;;5011159;28;20450;-81
2022/07/03 07:42:43;;;;;;;7.63;3.33;;;22.70;99.90;;;;;;5002627;28;20537;-84
2022/07/03 07:45:11;;;;;;;6.83;3.10;;;22.80;99.90;;;;;;5013762;28;20454;-81
2022/07/03 07:47:38;;;;;;;7.10;2.60;;;22.90;99.90;;;;;;5002523;28;20489;-81
2022/07/03 07:50:08;;;;;;;6.67;2.83;;;22.90;99.90;;;;;;4997054;28;20531;-82
2022/07/03 07:52:35;;;;;;;4.30;2.27;;;23.00;99.90;;;;;;4999147;28;20493;-86
2022/07/03 07:55:02;;;;;;;4.27;2.27;;;23.20;99.90;;;;;;5007610;28;20458;-81
2022/07/03 07:57:35;;;;;;;5.00;2.00;;;23.20;99.90;;;;;;5010061;28;20450;-82
2022/07/03 08:00:07;;;;;;;4.30;2.10;;;23.40;99.90;;;;;;5011849;28;20456;-83
2022/07/03 08:05:37;;;;;;;5.10;2.30;;;23.80;99.90;;;;;;5006070;28;20437;-83
2022/07/03 08:08:07;;;;;;;4.00;2.50;;;24.00;99.90;;;;;;5004732;28;20443;-82
2022/07/03 08:10:43;;;;;;;3.90;1.97;;;24.00;99.90;;;;;;5009536;28;20544;-83
2022/07/03 08:13:10;;;;;;;5.10;2.33;;;24.00;99.90;;;;;;5010371;28;20528;-81
2022/07/03 08:15:37;;;;;;;4.57;2.10;;;24.10;99.90;;;;;;5009264;28;20525;-82
2022/07/03 08:18:05;;;;;;;9.27;2.27;;;24.30;99.90;;;;;;4998446;28;20482;-81
2022/07/03 08:20:34;;;;;;;5.77;2.17;;;24.60;99.90;;;;;;5005156;28;20831;-85
2022/07/03 08:23:02;;;;;;;4.60;1.80;;;24.90;99.90;;;;;;4998258;28;20912;-79
2022/07/03 08:25:29;;;;;;;3.70;2.10;;;25.10;99.90;;;;;;5002031;28;20571;-83
2022/07/03 08:27:56;;;;;;;4.43;2.00;;;25.40;99.90;;;;;;5006057;28;20454;-82
2022/07/03 08:30:23;;;;;;;3.70;1.60;;;25.70;99.90;;;;;;5016057;28;20496;-81
2022/07/03 08:32:53;;;;;;;3.67;1.63;;;25.90;99.90;;;;;;5005973;28;20494;-79
2022/07/03 08:35:20;;;;;;;5.00;1.80;;;26.00;99.90;;;;;;5010075;28;20522;-81
2022/07/03 08:37:49;;;;;;;5.13;1.97;;;26.20;99.90;;;;;;5007026;28;20455;-79
2022/07/03 08:40:17;;;;;;;5.00;1.90;;;26.00;99.90;;;;;;5012222;28;20944;-81
2022/07/03 08:42:47;;;;;;;3.20;1.47;;;26.00;99.90;;;;;;5003918;28;20533;-83
2022/07/03 08:45:16;;;;;;;4.03;1.90;;;25.80;99.90;;;;;;5000792;28;21074;-80
2022/07/03 08:47:44;;;;;;;4.53;2.10;;;25.80;99.90;;;;;;4998861;28;20457;-81
2022/07/03 08:50:13;;;;;;;5.73;2.03;;;25.90;99.90;;;;;;4999316;28;20542;-80
2022/07/03 08:52:40;;;;;;;7.00;2.33;;;25.90;99.90;;;;;;4998576;28;20521;-81
2022/07/03 08:55:11;;;;;;;3.50;1.50;;;26.20;99.90;;;;;;4999452;28;21009;-81
2022/07/03 08:57:40;;;;;;;6.73;2.70;;;26.50;99.90;;;;;;4999564;28;20447;-81
2022/07/03 09:00:10;;;;;;;5.10;2.67;;;26.60;99.90;;;;;;4999736;28;20867;-80
2022/07/03 09:02:39;;;;;;;5.63;2.00;;;26.80;99.90;;;;;;4993708;28;20986;-81
2022/07/03 09:05:08;;;;;;;3.83;2.20;;;26.80;99.90;;;;;;4998395;28;20462;-79
2022/07/03 09:07:37;;;;;;;5.50;2.40;;;26.80;99.90;;;;;;4999800;28;20877;-81
2022/07/03 09:10:05;;;;;;;4.30;1.80;;;26.80;99.90;;;;;;4999579;28;20455;-81
2022/07/03 09:12:33;;;;;;;3.23;1.80;;;27.00;99.90;;;;;;4999615;28;20550;-81
2022/07/03 09:15:00;;;;;;;5.00;2.50;;;27.20;99.90;;;;;;4998334;28;20454;-80
2022/07/03 09:17:28;;;;;;;3.40;2.10;;;27.40;99.90;;;;;;4996839;28;20486;-79
2022/07/03 09:19:58;;;;;;;6.37;2.10;;;27.80;99.90;;;;;;4999725;28;20537;-82
2022/07/03 09:22:27;;;;;;;4.20;2.00;;;28.20;99.90;;;;;;4999993;28;20443;-79
2022/07/03 09:24:55;;;;;;;2.90;1.80;;;28.40;99.90;;;;;;4998236;28;20486;-80
2022/07/03 09:27:23;;;;;;;3.93;1.90;;;28.70;99.90;;;;;;4999613;28;20459;-80
2022/07/03 09:30:02;;;;;;;3.60;2.00;;;28.70;99.90;;;;;;4999832;28;20497;-81
2022/07/03 09:32:34;;;;;;;4.23;1.80;;;28.70;99.90;;;;;;5000079;28;20577;-81
2022/07/03 09:35:17;;;;;;;4.00;2.10;;;28.80;99.90;;;;;;4999422;28;20981;-80
2022/07/03 09:37:49;;;;;;;3.40;1.73;;;28.90;99.90;;;;;;4999723;28;20462;-80
2022/07/03 09:40:17;;;;;;;5.00;2.20;;;29.10;99.90;;;;;;4999633;28;20558;-81
2022/07/03 09:42:58;;;;;;;5.10;2.20;;;29.00;99.90;;;;;;4999783;28;20455;-80
2022/07/03 09:45:26;;;;;;;4.60;2.40;;;28.90;99.90;;;;;;4997947;28;20458;-81
2022/07/03 09:47:53;;;;;;;6.43;3.63;;;29.00;99.90;;;;;;4989556;28;20469;-81
2022/07/03 09:50:20;;;;;;;4.43;2.70;;;29.00;99.90;;;;;;4994494;28;20882;-81
2022/07/03 09:52:48;;;;;;;5.23;2.37;;;29.10;99.90;;;;;;4997882;28;20834;-81
2022/07/03 09:55:18;;;;;;;4.20;2.00;;;29.20;99.90;;;;;;4997671;28;20447;-80
2022/07/03 09:58:01;;;;;;;5.30;2.80;;;29.20;99.90;;;;;;4996579;28;20465;-80
2022/07/03 10:00:31;;;;;;;8.03;2.73;;;28.90;99.90;;;;;;4993187;28;20509;-79
2022/07/03 10:03:00;;;;;;;4.10;1.87;;;28.90;99.90;;;;;;4995919;28;21057;-79
2022/07/03 10:05:29;;;;;;;6.37;2.13;;;29.10;99.90;;;;;;4996523;28;20458;-79
2022/07/03 10:07:58;;;;;;;5.80;3.20;;;29.20;99.90;;;;;;4995898;28;20550;-81
2022/07/03 10:10:27;;;;;;;3.60;1.80;;;28.80;99.90;;;;;;4996642;28;20842;-81
2022/07/03 10:12:56;;;;;;;3.00;1.60;;;28.80;99.90;;;;;;4994019;28;20603;-79
2022/07/03 10:15:24;;;;;;;6.83;2.10;;;28.80;99.90;;;;;;4993864;28;20486;-80
2022/07/03 10:17:59;;;;;;;3.23;1.50;;;28.80;99.90;;;;;;4991977;28;21089;-81
2022/07/03 10:20:29;;;;;;;7.03;2.13;;;28.80;99.90;;;;;;4974998;28;20443;-79
2022/07/03 10:22:56;;;;;;;2.73;1.50;;;29.10;99.90;;;;;;4974456;28;20496;-81
2022/07/03 10:25:24;;;;;;;6.33;1.80;;;29.40;99.90;;;;;;4957437;28;20470;-79
2022/07/03 10:27:53;;;;;;;3.93;1.40;;;29.60;99.90;;;;;;4974500;28;21011;-80
2022/07/03 10:30:23;;;;;;;2.80;1.40;;;29.80;99.90;;;;;;4974736;28;20455;-80
2022/07/03 10:32:53;;;;;;;2.73;1.60;;;30.20;99.90;;;;;;4974434;28;20479;-80
2022/07/03 10:35:23;;;;;;;3.40;1.40;;;30.60;99.90;;;;;;4975049;28;20510;-81
2022/07/03 10:38:14;;;;;;;5.37;1.50;;;30.70;99.90;;;;;;4978261;28;20523;-79
2022/07/03 10:46:27;;;;;;;2.80;1.50;;;31.20;99.90;;;;;;5015140;28;20433;-80
2022/07/03 10:49:00;;;;;;;2.70;1.27;;;31.00;99.90;;;;;;5014593;28;20560;-81
2022/07/03 10:51:31;;;;;;;3.47;1.30;;;31.20;99.90;;;;;;5015238;28;21029;-81
2022/07/03 10:54:19;;;;;;;3.07;1.60;;;31.30;99.90;;;;;;5012383;28;20580;-78
2022/07/03 10:57:09;;;;;;;3.63;2.00;;;30.90;99.90;;;;;;4993520;28;20455;-81
2022/07/03 11:00:14;;;;;;;3.17;1.20;;;31.00;99.90;;;;;;4994170;28;20462;-79
2022/07/03 11:02:43;;;;;;;3.87;1.70;;;31.40;99.90;;;;;;4994696;28;20462;-83
2022/07/03 11:05:26;;;;;;;3.67;1.60;;;31.70;99.90;;;;;;4991729;28;20954;-80
2022/07/03 11:08:13;;;;;;;3.23;1.87;;;32.10;99.90;;;;;;4994093;28;20462;-80
2022/07/03 11:10:44;;;;;;;2.83;1.13;;;32.40;99.90;;;;;;4994354;28;20497;-80
2022/07/03 11:13:21;;;;;;;4.77;1.67;;;32.60;99.90;;;;;;4994645;28;20518;-80
2022/07/03 11:15:51;;;;;;;3.17;1.20;;;32.90;99.90;;;;;;4994949;28;20461;-81
2022/07/03 11:18:27;;;;;;;3.43;1.27;;;33.00;99.90;;;;;;4995144;28;20562;-81
2022/07/03 11:21:24;;;;;;;6.40;1.50;;;33.10;99.90;;;;;;4993642;28;20446;-82
2022/07/03 11:24:37;;;;;;;2.53;1.20;;;33.30;99.90;;;;;;4991528;28;20474;-80
2022/07/03 11:27:14;;;;;;;3.50;1.40;;;33.40;99.90;;;;;;4974692;28;20451;-79
2022/07/03 11:29:43;;;;;;;3.77;1.77;;;33.00;97.40;;;;;;4998615;28;20818;-79
2022/07/03 11:32:50;;;;;;;3.10;1.60;;;32.80;95.30;;;;;;4998120;28;20880;-80
2022/07/03 11:35:55;;;;;;;2.90;1.40;;;31.90;96.20;;;;;;4992997;28;20486;-81
2022/07/03 11:38:26;;;;;;;2.70;1.30;;;32.00;99.90;;;;;;4998277;28;21096;-79
2022/07/03 11:40:55;;;;;;;3.80;1.50;;;32.40;99.90;;;;;;4997238;28;20441;-81
2022/07/03 11:43:22;;;;;;;2.30;1.27;;;32.70;96.30;;;;;;4998506;28;20849;-81
2022/07/03 11:45:53;;;;;;;2.53;1.10;;;32.90;95.60;;;;;;4998364;28;20482;-82
2022/07/03 11:48:22;;;;;;;2.17;1.10;;;33.00;97.60;;;;;;4997565;28;20537;-80
2022/07/03 11:50:50;;;;;;;3.60;1.20;;;32.40;96.70;;;;;;4997660;28;20450;-82
2022/07/03 11:53:30;;;;;;;2.43;1.23;;;31.70;99.70;;;;;;4997858;28;20482;-81
2022/07/03 11:55:59;;;;;;;3.83;1.50;;;31.90;99.90;;;;;;4998707;28;20539;-80
2022/07/03 11:58:36;;;;;;;4.93;1.50;;;32.80;99.90;;;;;;4998004;28;20492;-80
2022/07/03 12:01:03;;;;;;;3.13;1.33;;;33.40;97.10;;;;;;4997670;28;20536;-80
2022/07/03 12:03:30;;;;;;;3.27;1.37;;;33.30;93.60;;;;;;4996887;28;20661;-80
2022/07/03 12:05:58;;;;;;;3.50;1.50;;;32.80;94.00;;;;;;4997509;28;20466;-79
2022/07/03 12:08:29;;;;;;;3.27;1.30;;;33.00;94.20;;;;;;4998391;28;20549;-78
2022/07/03 12:11:03;;;;;;;3.53;1.30;;;33.50;95.30;;;;;;4997451;28;20455;-80
2022/07/03 12:13:32;;;;;;;3.03;1.20;;;34.00;93.90;;;;;;4996390;28;20577;-80
2022/07/03 12:16:03;;;;;;;3.00;1.20;;;34.00;92.40;;;;;;4998504;28;20458;-79
2022/07/03 12:18:48;;;;;;;4.57;1.50;;;34.30;97.40;;;;;;4998004;28;20450;-81
2022/07/03 12:21:16;;;;;;;3.30;1.30;;;34.60;91.80;;;;;;4997779;28;20553;-79
2022/07/03 12:23:49;;;;;;;2.37;1.23;;;34.60;93.10;;;;;;4996915;28;20649;-79
2022/07/03 12:26:29;;;;;;;3.33;1.60;;;35.00;95.90;;;;;;4998261;28;20524;-80
2022/07/03 12:28:57;;;;;;;4.00;1.43;;;34.70;90.10;;;;;;4998069;28;20463;-79
2022/07/03 12:31:24;;;;;;;3.23;1.30;;;34.80;91.20;;;;;;4998288;28;20458;-80
2022/07/03 12:33:52;;;;;;;4.27;1.27;;;34.80;90.40;;;;;;4996757;28;20598;-81
2022/07/03 12:36:19;;;;;;;2.50;1.27;;;34.90;88.80;;;;;;5000865;28;20450;-78
2022/07/03 12:38:50;;;;;;;3.20;1.23;;;34.90;90.10;;;;;;4998378;28;20542;-79
2022/07/03 12:41:17;;;;;;;3.40;1.50;;;34.40;89.30;;;;;;4998708;28;20490;-80
2022/07/03 12:43:47;;;;;;;3.13;1.70;;;34.20;89.40;;;;;;4997451;28;20561;-81
2022/07/03 12:46:23;;;;;;;2.97;1.40;;;34.30;92.50;;;;;;4998994;28;20462;-80
2022/07/03 12:48:51;;;;;;;4.10;1.53;;;34.40;90.30;;;;;;4999405;28;20458;-81
2022/07/03 12:51:33;;;;;;;3.37;1.33;;;34.30;84.60;;;;;;4998337;28;20451;-80
2022/07/03 12:54:01;;;;;;;4.03;1.30;;;33.60;89.80;;;;;;4997214;28;20526;-81
2022/07/03 12:56:28;;;;;;;3.63;1.40;;;33.20;87.40;;;;;;4979209;28;20554;-80
2022/07/03 13:01:36;;;;;;;2.50;1.10;;;32.60;88.30;;;;;;4986010;28;20533;-80
2022/07/03 13:04:04;;;;;;;4.30;1.43;;;32.10;82.00;;;;;;4997622;28;20524;-81
2022/07/03 13:06:31;;;;;;;3.60;1.40;;;31.70;85.80;;;;;;4999200;28;20477;-79
2022/07/03 13:09:00;;;;;;;4.20;1.20;;;31.10;90.60;;;;;;4998002;28;21026;-80
2022/07/03 13:11:29;;;;;;;3.60;1.13;;;30.80;91.60;;;;;;4998316;28;20450;-81
2022/07/03 13:14:04;;;;;;;2.30;1.20;;;31.40;93.10;;;;;;4998477;28;20490;-80
2022/07/03 13:16:41;;;;;;;3.17;1.17;;;32.30;92.20;;;;;;4998252;28;20578;-82
2022/07/03 13:19:09;;;;;;;2.73;1.00;;;32.20;84.70;;;;;;4996301;28;20490;-81